Terminal Aerodrome Forecast
Issued by NWS Memphis, TN

Home | Current Version | Previous Version | Text Only | Print | Product List | Glossary On
Versions: 1 2 3 4 5 6 7 8 9 10 11 12 13 14 15
000
FTUS44 KMEG 252320
TAFMKL
TAF
KMKL 252320Z 2600/2624 24015G22KT P6SM SKC
     FM260100 25008KT P6SM SKC
     FM261000 35009KT P6SM BKN008
      TEMPO 2610/2614 OVC004
     FM261600 36012G18KT P6SM OVC015
     FM261900 36012G18KT P6SM BKN025
     FM262200 36012KT P6SM BKN035=

USA.gov is the U.S. government's official web portal to all federal, state and local government web resources and services.